Waldorf, Maryland
Current Conditions -  °F | °C
As of 3:58 AM on Sunday 23 Nov 2014 (Local Time) from KADW Reporting Station
Clear Clear  
Wind Chill: 33°   Ceiling: Unl
Heat Index: 40°   Visibility: 10mi
Dew Point: 17°   Wind: 13mph
Humidity: 39%   Direction: 210°SSW
Pressure: 30.19"   Gusts: NA
Location:  38.62°N, 76.9°W
Report Text: KADW 230858Z AUTO 21011KT 10SM CLR 05/M08 A3019 RMK AO2 SLP232 T00471081 58011 $
Loading
Personal Weather Stations






























Interactive Weather Map New forecast layout! Learn more

10-Day Weather Forecast

Advertisements
Track Severe Weather on mobile